Time;durP1;ratioP1;P1;durP2;ratioP2;P2;SDS_P1;SDS_P2;PMS_P1;PMS_P2;Temp;Humidity;BMP_temperature;BMP_pressure;BME280_temperature;BME280_humidity;BME280_pressure;Samples;Min_cycle;Max_cycle;Signal;HPM_P1;HPM_P2
2022/07/17 00:01:46;;;;;;;9.32;2.90;;;13.40;99.90;;;;;;5045547;28;20152;-77
2022/07/17 00:04:15;;;;;;;5.50;2.45;;;13.40;99.90;;;;;;5045670;28;20132;-77
2022/07/17 00:06:40;;;;;;;7.55;2.65;;;13.20;99.90;;;;;;5046598;28;20120;-77
2022/07/17 00:09:06;;;;;;;4.53;2.30;;;13.30;99.90;;;;;;5045757;28;20044;-77
2022/07/17 00:11:31;;;;;;;8.35;2.75;;;13.30;99.90;;;;;;5045418;28;20359;-78
2022/07/17 00:13:57;;;;;;;6.38;2.60;;;13.20;99.90;;;;;;5047992;28;20545;-78
2022/07/17 00:16:23;;;;;;;7.10;3.15;;;13.30;99.90;;;;;;5044756;28;20033;-78
2022/07/17 00:18:48;;;;;;;6.75;2.75;;;13.30;99.90;;;;;;5047773;28;20032;-77
2022/07/17 00:21:15;;;;;;;4.85;2.35;;;13.20;99.90;;;;;;5029674;28;20048;-77
2022/07/17 00:23:40;;;;;;;5.78;3.10;;;13.00;99.90;;;;;;5046708;28;20124;-77
2022/07/17 00:26:06;;;;;;;6.10;2.35;;;12.90;99.90;;;;;;5052519;28;20147;-77
2022/07/17 00:28:32;;;;;;;5.50;2.60;;;12.90;99.90;;;;;;5044729;28;20033;-77
2022/07/17 00:30:57;;;;;;;6.72;2.47;;;12.80;99.90;;;;;;5046507;28;20087;-77
2022/07/17 00:33:23;;;;;;;6.00;2.70;;;12.80;99.90;;;;;;5044881;28;20036;-77
2022/07/17 00:35:48;;;;;;;5.47;2.58;;;12.80;99.90;;;;;;5045335;28;20037;-76
2022/07/17 00:38:15;;;;;;;4.15;2.30;;;12.80;99.90;;;;;;5044697;28;20037;-77
2022/07/17 00:40:40;;;;;;;6.30;2.70;;;12.80;99.90;;;;;;5045457;28;20478;-77
2022/07/17 00:43:06;;;;;;;4.50;2.78;;;12.90;99.90;;;;;;5043776;28;20123;-77
2022/07/17 00:45:32;;;;;;;4.47;2.40;;;12.80;99.90;;;;;;5043452;28;20163;-77
2022/07/17 00:47:58;;;;;;;4.60;2.75;;;12.60;99.90;;;;;;5045301;28;20047;-77
2022/07/17 00:50:28;;;;;;;4.35;2.40;;;12.60;99.90;;;;;;5027683;28;20087;-78
2022/07/17 00:52:54;;;;;;;4.72;2.40;;;12.50;99.90;;;;;;5045615;28;20094;-77
2022/07/17 00:55:19;;;;;;;4.20;2.58;;;12.60;99.90;;;;;;5042045;28;20041;-77
2022/07/17 00:57:47;;;;;;;4.63;2.15;;;12.50;99.90;;;;;;5043684;28;20041;-77
2022/07/17 01:00:14;;;;;;;7.38;2.63;;;12.50;99.90;;;;;;5044799;28;20029;-77
2022/07/17 01:02:39;;;;;;;4.80;2.40;;;12.50;99.90;;;;;;5044568;28;20434;-78
2022/07/17 01:05:05;;;;;;;6.53;2.53;;;12.50;99.90;;;;;;5046215;28;20039;-78
2022/07/17 01:07:32;;;;;;;4.85;2.22;;;12.50;99.90;;;;;;5030029;28;20029;-77
2022/07/17 01:09:58;;;;;;;6.57;2.30;;;12.50;99.90;;;;;;5046719;28;20033;-77
2022/07/17 01:12:24;;;;;;;3.60;2.33;;;12.30;99.90;;;;;;5045868;28;20042;-77
2022/07/17 01:14:52;;;;;;;3.50;2.40;;;12.30;99.90;;;;;;5044804;28;20055;-78
2022/07/17 01:17:18;;;;;;;4.25;2.40;;;12.30;99.90;;;;;;5046215;28;20130;-78
2022/07/17 01:19:43;;;;;;;4.55;2.40;;;12.30;99.90;;;;;;5044550;28;20136;-77
2022/07/17 01:22:09;;;;;;;6.57;2.45;;;12.20;99.90;;;;;;5043370;28;20406;-77
2022/07/17 01:24:39;;;;;;;4.97;2.60;;;12.10;99.90;;;;;;5025461;28;20558;-77
2022/07/17 01:27:04;;;;;;;4.60;2.20;;;12.10;99.90;;;;;;5047475;28;20032;-77
2022/07/17 01:29:30;;;;;;;4.35;2.25;;;12.00;99.90;;;;;;5028108;28;20525;-78
2022/07/17 01:31:55;;;;;;;6.07;2.42;;;11.90;99.90;;;;;;5041829;28;20415;-78
2022/07/17 01:34:21;;;;;;;5.63;2.30;;;11.90;99.90;;;;;;5027763;28;20106;-77
2022/07/17 01:36:46;;;;;;;5.82;2.60;;;11.80;99.90;;;;;;5042906;28;20566;-77
2022/07/17 01:39:12;;;;;;;6.15;2.47;;;11.80;99.90;;;;;;5043912;28;20120;-77
2022/07/17 01:41:38;;;;;;;4.40;2.40;;;11.70;99.90;;;;;;5043037;28;20029;-77
2022/07/17 01:44:04;;;;;;;6.93;2.38;;;11.70;99.90;;;;;;5045511;28;20203;-78
2022/07/17 01:46:29;;;;;;;3.00;2.03;;;11.60;99.90;;;;;;5043704;28;20052;-78
2022/07/17 01:48:55;;;;;;;5.97;3.08;;;11.60;99.90;;;;;;5046503;28;20045;-77
2022/07/17 01:51:21;;;;;;;6.43;2.63;;;11.70;99.90;;;;;;5043980;28;20052;-77
2022/07/17 01:53:46;;;;;;;4.95;2.70;;;11.80;99.90;;;;;;5039610;28;20067;-77
2022/07/17 01:56:12;;;;;;;5.45;2.47;;;11.80;99.90;;;;;;5043382;28;20037;-77
2022/07/17 01:58:38;;;;;;;4.60;2.40;;;11.80;99.90;;;;;;5047087;28;20040;-77
2022/07/17 02:01:04;;;;;;;4.00;2.25;;;11.70;99.90;;;;;;5042391;28;20096;-77
2022/07/17 02:03:29;;;;;;;5.55;2.60;;;11.70;99.90;;;;;;5027542;28;20402;-76
2022/07/17 02:05:55;;;;;;;3.63;2.33;;;11.60;99.90;;;;;;5041556;28;20036;-77
2022/07/17 02:08:20;;;;;;;5.90;2.88;;;11.60;99.90;;;;;;5043041;28;20036;-77
2022/07/17 02:10:46;;;;;;;4.30;2.40;;;11.60;99.90;;;;;;5042467;28;20059;-77
2022/07/17 02:13:12;;;;;;;5.05;2.55;;;11.60;99.90;;;;;;5042787;28;20037;-77
2022/07/17 02:15:37;;;;;;;5.80;2.70;;;11.50;99.90;;;;;;5042293;28;20124;-77
2022/07/17 02:18:03;;;;;;;7.03;2.95;;;11.50;99.90;;;;;;5044149;28;20045;-77
2022/07/17 02:20:29;;;;;;;3.75;2.47;;;11.50;99.90;;;;;;5045146;28;20037;-77
2022/07/17 02:22:54;;;;;;;6.00;2.53;;;11.50;99.90;;;;;;5028477;28;20071;-77
2022/07/17 02:25:20;;;;;;;4.82;2.58;;;11.60;99.90;;;;;;5042080;28;20037;-77
2022/07/17 02:27:46;;;;;;;4.95;2.40;;;11.60;99.90;;;;;;5028184;28;20044;-77
2022/07/17 02:30:14;;;;;;;4.75;2.65;;;11.60;99.90;;;;;;5043912;28;20037;-77
2022/07/17 02:32:41;;;;;;;8.38;2.70;;;11.70;99.90;;;;;;5041611;28;20041;-77
2022/07/17 02:35:08;;;;;;;5.13;2.70;;;11.70;99.90;;;;;;5041841;28;20033;-77
2022/07/17 02:37:34;;;;;;;3.65;2.30;;;11.60;99.90;;;;;;5044238;28;20067;-77
2022/07/17 02:40:00;;;;;;;7.10;3.10;;;11.60;99.90;;;;;;5045032;28;20083;-77
2022/07/17 02:42:27;;;;;;;5.40;2.20;;;11.50;99.90;;;;;;5040582;28;20048;-77
2022/07/17 02:44:53;;;;;;;4.68;2.40;;;11.50;99.90;;;;;;5026657;28;20071;-77
2022/07/17 02:47:30;;;;;;;4.75;2.35;;;11.60;99.90;;;;;;5045161;28;20407;-76
2022/07/17 02:49:56;;;;;;;5.47;2.63;;;11.70;99.90;;;;;;5042180;28;20037;-77
2022/07/17 02:52:22;;;;;;;7.22;2.85;;;11.70;99.90;;;;;;5042222;28;20044;-76
2022/07/17 02:54:48;;;;;;;4.55;2.28;;;11.70;99.90;;;;;;5043351;28;20044;-77
2022/07/17 02:57:14;;;;;;;5.10;2.65;;;11.60;99.90;;;;;;5025666;28;20138;-76
2022/07/17 02:59:40;;;;;;;8.13;2.70;;;11.60;99.90;;;;;;5028173;28;20395;-77
2022/07/17 03:02:06;;;;;;;5.50;2.60;;;11.60;99.90;;;;;;5040063;28;20041;-77
2022/07/17 03:04:32;;;;;;;5.68;2.13;;;11.40;99.90;;;;;;5044018;28;20590;-77
2022/07/17 03:06:58;;;;;;;4.40;2.10;;;11.40;99.90;;;;;;5040554;28;20095;-77
2022/07/17 03:09:23;;;;;;;5.75;2.38;;;11.40;99.90;;;;;;5042818;28;20040;-77
2022/07/17 03:11:49;;;;;;;4.82;2.45;;;11.30;99.90;;;;;;5043215;28;20124;-77
2022/07/17 03:14:14;;;;;;;5.65;2.25;;;11.30;99.90;;;;;;5042861;28;20044;-77
2022/07/17 03:16:40;;;;;;;5.07;2.60;;;11.30;99.90;;;;;;5045086;28;20037;-77
2022/07/17 03:19:06;;;;;;;4.32;2.03;;;11.30;99.90;;;;;;5042954;28;20119;-77
2022/07/17 03:21:31;;;;;;;4.25;2.15;;;11.30;99.90;;;;;;5025512;28;20064;-77
2022/07/17 03:23:57;;;;;;;5.68;2.42;;;11.20;99.90;;;;;;5043757;28;20029;-77
2022/07/17 03:26:22;;;;;;;4.70;2.30;;;11.10;99.90;;;;;;5043127;28;20094;-77
2022/07/17 03:28:48;;;;;;;4.68;2.50;;;11.10;99.90;;;;;;5044841;28;20411;-77
2022/07/17 03:31:14;;;;;;;3.95;2.10;;;11.10;99.90;;;;;;5041478;28;20041;-77
2022/07/17 03:33:39;;;;;;;4.55;2.40;;;11.20;99.90;;;;;;5041679;28;20113;-77
2022/07/17 03:36:06;;;;;;;3.65;2.25;;;11.20;99.90;;;;;;5042150;28;20134;-77
2022/07/17 03:38:32;;;;;;;3.72;2.35;;;11.30;99.90;;;;;;5024552;28;20033;-77
2022/07/17 03:40:57;;;;;;;4.38;2.33;;;11.30;99.90;;;;;;5041978;28;20037;-77
2022/07/17 03:43:23;;;;;;;4.53;2.10;;;11.20;99.90;;;;;;5041126;28;20048;-77
2022/07/17 03:45:48;;;;;;;2.85;2.05;;;11.10;99.90;;;;;;5042160;28;20028;-77
2022/07/17 03:48:14;;;;;;;6.07;2.40;;;11.10;99.90;;;;;;5043989;28;20123;-77
2022/07/17 03:50:39;;;;;;;5.57;3.35;;;11.30;99.90;;;;;;5026262;28;20191;-77
2022/07/17 03:53:05;;;;;;;4.00;2.30;;;11.20;99.90;;;;;;5039379;28;20036;-77
2022/07/17 03:55:31;;;;;;;5.57;3.13;;;11.30;99.90;;;;;;5039140;28;20048;-77
2022/07/17 03:57:56;;;;;;;3.97;2.40;;;11.30;99.90;;;;;;5044897;28;20100;-77
2022/07/17 04:00:22;;;;;;;5.18;2.70;;;11.40;99.90;;;;;;5042621;28;20045;-77
2022/07/17 04:39:43;;;;;;;7.00;2.70;;;12.00;99.90;;;;;;5044550;28;20556;-78
2022/07/17 04:42:09;;;;;;;4.97;2.75;;;12.10;99.90;;;;;;5049703;28;20052;-78
2022/07/17 04:44:34;;;;;;;7.88;3.13;;;12.10;99.90;;;;;;5031972;28;20041;-77
2022/07/17 04:47:00;;;;;;;4.60;2.40;;;12.10;99.90;;;;;;5044424;28;20056;-77
2022/07/17 04:49:26;;;;;;;6.63;3.00;;;12.10;99.90;;;;;;5032143;28;20037;-77
2022/07/17 04:51:51;;;;;;;6.43;2.60;;;12.20;99.90;;;;;;5046783;28;20041;-77
2022/07/17 04:54:17;;;;;;;5.60;2.42;;;12.30;99.90;;;;;;5050092;28;20032;-77
2022/07/17 04:56:42;;;;;;;4.35;1.92;;;12.40;99.90;;;;;;5048035;28;20041;-77
2022/07/17 04:59:08;;;;;;;4.57;2.35;;;12.50;99.90;;;;;;5048083;28;20037;-78
2022/07/17 05:01:34;;;;;;;5.28;2.65;;;12.40;99.90;;;;;;5047101;28;20224;-78
2022/07/17 05:03:59;;;;;;;5.55;2.33;;;12.40;99.90;;;;;;5046953;28;20065;-77
2022/07/17 05:06:25;;;;;;;7.75;2.67;;;12.50;99.90;;;;;;5029349;28;20507;-77
2022/07/17 05:08:50;;;;;;;4.55;2.50;;;12.50;99.90;;;;;;5052481;28;20045;-77
2022/07/17 05:11:16;;;;;;;5.90;2.33;;;12.50;99.90;;;;;;5050749;28;20041;-77
2022/07/17 05:13:41;;;;;;;6.40;2.10;;;12.50;99.90;;;;;;5048559;28;20073;-77
2022/07/17 05:16:07;;;;;;;6.97;2.83;;;12.60;99.90;;;;;;5040023;28;20033;-77
2022/07/17 05:18:33;;;;;;;6.18;2.65;;;12.50;99.90;;;;;;5044423;28;20559;-77
2022/07/17 05:20:58;;;;;;;5.03;1.98;;;12.50;99.90;;;;;;5049139;28;20083;-77
2022/07/17 05:23:24;;;;;;;8.45;2.78;;;12.60;99.90;;;;;;5050954;28;20494;-77
2022/07/17 05:25:49;;;;;;;6.57;2.60;;;12.60;99.90;;;;;;5031507;28;20092;-77
2022/07/17 05:28:15;;;;;;;5.45;2.45;;;12.70;99.90;;;;;;5028749;28;20041;-77
2022/07/17 05:30:40;;;;;;;8.85;2.60;;;12.70;99.90;;;;;;5033540;28;20044;-77
2022/07/17 05:33:06;;;;;;;5.47;2.22;;;12.80;99.90;;;;;;5045829;28;20051;-77
2022/07/17 05:35:31;;;;;;;3.97;2.03;;;12.90;99.90;;;;;;5047904;28;20414;-77
2022/07/17 05:37:57;;;;;;;5.93;2.22;;;12.90;99.90;;;;;;5048088;28;20039;-77
2022/07/17 05:40:25;;;;;;;4.68;2.20;;;13.00;99.90;;;;;;5042663;28;21733;-77
2022/07/17 05:42:51;;;;;;;4.00;2.25;;;13.10;99.90;;;;;;5044925;28;20543;-77
2022/07/17 05:45:16;;;;;;;7.25;2.50;;;13.20;99.90;;;;;;5045994;28;20061;-76
2022/07/17 05:47:42;;;;;;;6.88;2.30;;;13.20;99.90;;;;;;5050693;28;20036;-77
2022/07/17 05:50:07;;;;;;;6.88;2.30;;;13.30;99.90;;;;;;5039720;28;20091;-77
2022/07/17 05:52:33;;;;;;;5.32;2.10;;;13.40;99.90;;;;;;5041514;28;20087;-77
2022/07/17 05:54:59;;;;;;;9.43;2.30;;;13.40;99.90;;;;;;5048907;28;20048;-77
2022/07/17 05:57:24;;;;;;;3.85;1.58;;;13.40;99.90;;;;;;5045185;28;20565;-77
2022/07/17 05:59:50;;;;;;;6.10;1.92;;;13.60;99.90;;;;;;5042490;28;20624;-77
2022/07/17 06:02:15;;;;;;;6.43;2.08;;;13.90;99.90;;;;;;5029638;28;20143;-77
2022/07/17 06:04:41;;;;;;;3.50;1.65;;;14.20;99.90;;;;;;5046109;28;20063;-77
2022/07/17 06:07:06;;;;;;;4.03;1.60;;;14.30;99.90;;;;;;5044066;28;20037;-77
2022/07/17 06:09:32;;;;;;;4.60;1.60;;;14.50;99.90;;;;;;5043209;28;20033;-77
2022/07/17 06:11:57;;;;;;;4.70;1.30;;;14.70;99.90;;;;;;5048065;28;20488;-77
2022/07/17 06:14:24;;;;;;;4.13;1.83;;;14.90;99.90;;;;;;5017186;28;20108;-77
2022/07/17 06:16:50;;;;;;;5.25;1.70;;;15.10;99.90;;;;;;5048318;28;20161;-77
2022/07/17 06:19:15;;;;;;;5.03;1.73;;;15.20;99.90;;;;;;5043739;28;20053;-76
2022/07/17 06:21:41;;;;;;;6.85;1.80;;;15.40;99.90;;;;;;5039350;28;20045;-77
2022/07/17 06:24:06;;;;;;;8.18;1.70;;;15.60;99.90;;;;;;5030197;28;20388;-77
2022/07/17 06:26:32;;;;;;;7.05;1.63;;;15.70;99.90;;;;;;5030932;28;20490;-77
2022/07/17 06:28:58;;;;;;;5.22;1.48;;;16.00;99.90;;;;;;5037222;28;20061;-77
2022/07/17 06:31:23;;;;;;;5.97;1.40;;;16.10;99.90;;;;;;5043730;28;20132;-77
2022/07/17 06:33:49;;;;;;;3.03;1.05;;;16.30;99.90;;;;;;5031101;28;20040;-77
2022/07/17 06:36:14;;;;;;;7.50;1.20;;;16.50;99.90;;;;;;5048722;28;20445;-77
2022/07/17 06:38:40;;;;;;;7.65;1.52;;;16.70;99.90;;;;;;5050494;28;20047;-77
2022/07/17 06:41:05;;;;;;;7.15;1.30;;;16.90;99.90;;;;;;5023150;28;20409;-77
2022/07/17 06:43:31;;;;;;;6.20;1.25;;;17.10;99.90;;;;;;5047951;28;20044;-77
2022/07/17 06:45:57;;;;;;;7.90;1.23;;;17.20;99.90;;;;;;5039400;28;20115;-77
2022/07/17 06:48:23;;;;;;;5.63;1.27;;;17.10;99.90;;;;;;5041569;28;20584;-77
2022/07/17 06:50:48;;;;;;;6.25;1.45;;;17.00;99.90;;;;;;5049062;28;20398;-77
2022/07/17 06:53:14;;;;;;;4.72;1.20;;;16.80;99.90;;;;;;5042427;28;20120;-77
2022/07/17 06:55:40;;;;;;;5.95;1.50;;;16.70;99.90;;;;;;5048326;28;20079;-77
2022/07/17 06:58:06;;;;;;;4.95;1.33;;;16.60;99.90;;;;;;5049885;28;20060;-77
2022/07/17 07:00:32;;;;;;;3.33;1.08;;;16.50;99.90;;;;;;5060406;28;20029;-77
2022/07/17 07:02:58;;;;;;;4.13;1.45;;;16.50;99.90;;;;;;5041473;28;20418;-77
2022/07/17 07:05:23;;;;;;;3.58;1.08;;;16.40;99.90;;;;;;5032141;28;20040;-77
2022/07/17 07:07:49;;;;;;;5.40;1.20;;;16.50;99.90;;;;;;5045031;28;20029;-77
2022/07/17 07:10:14;;;;;;;5.82;1.30;;;16.40;99.90;;;;;;5048646;28;20660;-77
2022/07/17 07:12:40;;;;;;;5.82;1.10;;;16.40;99.90;;;;;;5041604;28;20040;-77
2022/07/17 07:15:07;;;;;;;7.43;1.33;;;16.30;99.90;;;;;;5036532;28;20041;-77
2022/07/17 07:17:34;;;;;;;3.65;0.98;;;16.30;99.90;;;;;;5046597;28;20037;-77
2022/07/17 07:20:02;;;;;;;3.58;1.30;;;16.30;99.90;;;;;;5047891;28;20371;-79
2022/07/17 07:22:28;;;;;;;5.07;1.27;;;16.30;99.90;;;;;;5051102;28;20585;-79
2022/07/17 07:24:53;;;;;;;5.05;1.33;;;16.30;99.90;;;;;;5049527;28;20064;-79
2022/07/17 07:27:19;;;;;;;5.38;1.17;;;16.30;99.90;;;;;;5038392;28;20672;-78
2022/07/17 07:29:44;;;;;;;4.68;1.60;;;16.30;99.90;;;;;;5041884;28;20063;-77
2022/07/17 07:32:10;;;;;;;6.65;1.27;;;16.40;99.90;;;;;;5043463;28;20483;-78
2022/07/17 07:34:36;;;;;;;6.38;1.40;;;16.40;99.90;;;;;;5029536;28;20094;-77
2022/07/17 07:37:01;;;;;;;5.93;1.33;;;16.50;99.90;;;;;;5034121;28;20555;-77
2022/07/17 07:39:27;;;;;;;7.13;1.33;;;16.50;99.90;;;;;;5041152;28;20079;-77
2022/07/17 07:41:52;;;;;;;6.00;1.10;;;16.60;99.90;;;;;;5046607;28;20037;-77
2022/07/17 07:44:18;;;;;;;5.00;1.35;;;16.70;99.90;;;;;;5041255;28;20037;-77
2022/07/17 07:46:44;;;;;;;5.88;1.25;;;16.90;99.90;;;;;;5031969;28;20041;-78
2022/07/17 07:49:10;;;;;;;4.88;1.30;;;16.90;99.90;;;;;;5047294;28;20053;-77
2022/07/17 07:51:35;;;;;;;4.43;1.00;;;17.00;99.90;;;;;;5029801;28;20033;-77
2022/07/17 07:54:01;;;;;;;6.15;1.30;;;17.00;99.90;;;;;;5044252;28;20585;-77
2022/07/17 07:56:26;;;;;;;8.00;1.33;;;17.10;99.90;;;;;;5035809;28;20156;-77
2022/07/17 07:58:52;;;;;;;5.07;1.25;;;17.20;99.90;;;;;;5049359;28;20033;-77
2022/07/17 08:01:17;;;;;;;6.00;1.30;;;17.30;99.90;;;;;;5034126;28;20041;-77
2022/07/17 08:03:43;;;;;;;4.63;1.27;;;17.30;99.90;;;;;;5033459;28;20128;-77
2022/07/17 08:06:08;;;;;;;5.53;1.27;;;17.40;99.90;;;;;;5046140;28;20419;-77
2022/07/17 08:08:34;;;;;;;4.72;1.67;;;17.40;99.90;;;;;;5045896;28;20040;-77
2022/07/17 08:10:59;;;;;;;5.50;1.23;;;17.40;99.90;;;;;;5042541;28;20036;-77
2022/07/17 08:13:25;;;;;;;6.68;1.23;;;17.50;99.90;;;;;;5044906;28;20168;-78
2022/07/17 08:15:51;;;;;;;4.10;1.10;;;17.70;99.90;;;;;;5045715;28;20487;-78
2022/07/17 08:18:16;;;;;;;6.93;1.60;;;17.80;99.90;;;;;;5044627;28;20031;-78
2022/07/17 08:20:43;;;;;;;5.88;1.30;;;18.00;99.90;;;;;;5044912;28;20103;-77
2022/07/17 08:23:08;;;;;;;5.50;1.25;;;18.20;99.90;;;;;;5034030;28;20446;-77
2022/07/17 08:25:35;;;;;;;5.13;1.17;;;18.50;99.90;;;;;;5043219;28;20037;-78
2022/07/17 08:28:00;;;;;;;4.20;1.20;;;18.70;99.90;;;;;;5049649;28;20037;-77
2022/07/17 08:30:26;;;;;;;4.22;1.13;;;18.90;99.90;;;;;;5044700;28;20457;-77
2022/07/17 08:32:52;;;;;;;8.35;1.30;;;19.10;99.90;;;;;;5040336;28;20453;-78
2022/07/17 08:35:17;;;;;;;7.95;1.27;;;19.30;99.90;;;;;;5038088;28;20041;-78
2022/07/17 08:37:44;;;;;;;4.95;1.23;;;19.20;99.90;;;;;;5041966;28;20086;-78
2022/07/17 08:40:15;;;;;;;9.85;1.80;;;19.30;99.90;;;;;;5042129;28;20029;-78
2022/07/17 08:42:42;;;;;;;7.97;1.00;;;19.30;99.90;;;;;;5046755;28;20419;-78
2022/07/17 08:45:09;;;;;;;6.75;1.48;;;19.30;99.90;;;;;;5041159;28;20110;-78
2022/07/17 08:47:36;;;;;;;4.13;1.00;;;19.40;99.90;;;;;;5029348;28;20380;-78
2022/07/17 08:50:03;;;;;;;6.88;1.20;;;19.50;99.90;;;;;;5048016;28;20037;-79
2022/07/17 08:52:29;;;;;;;3.15;0.95;;;19.60;99.90;;;;;;5050897;28;20033;-80
2022/07/17 08:54:54;;;;;;;4.40;1.30;;;19.40;99.90;;;;;;5046788;28;20048;-78
2022/07/17 08:57:20;;;;;;;4.93;1.10;;;19.30;99.90;;;;;;5049860;28;20037;-78
2022/07/17 08:59:47;;;;;;;4.80;1.20;;;19.20;99.90;;;;;;5044347;28;20044;-78
2022/07/17 09:02:13;;;;;;;5.07;1.10;;;19.30;99.90;;;;;;5022215;28;20037;-78
2022/07/17 09:04:40;;;;;;;4.53;0.82;;;19.20;99.90;;;;;;5033477;28;20107;-78
2022/07/17 09:07:05;;;;;;;4.40;1.10;;;19.30;99.90;;;;;;5032566;28;20064;-78
2022/07/17 09:09:33;;;;;;;4.97;1.10;;;19.30;99.90;;;;;;5025464;28;20037;-78
2022/07/17 09:12:00;;;;;;;4.47;1.35;;;19.30;99.90;;;;;;5043342;28;20068;-78
2022/07/17 09:14:40;;;;;;;3.35;0.90;;;19.50;99.90;;;;;;5033976;28;20041;-78
2022/07/17 09:17:07;;;;;;;3.22;1.10;;;19.30;99.90;;;;;;5033323;28;20029;-78
2022/07/17 09:19:35;;;;;;;3.47;1.20;;;19.40;99.90;;;;;;5036394;28;20038;-79
2022/07/17 09:22:24;;;;;;;6.20;1.13;;;19.60;99.90;;;;;;5047087;28;20123;-77
2022/07/17 09:24:58;;;;;;;5.10;1.38;;;19.70;99.90;;;;;;5064153;28;20049;-78
2022/07/17 09:27:23;;;;;;;3.17;1.15;;;19.90;99.90;;;;;;5035234;28;20037;-78
2022/07/17 09:29:53;;;;;;;3.28;1.15;;;19.90;99.90;;;;;;5034236;28;20053;-78
2022/07/17 09:32:20;;;;;;;7.45;1.33;;;19.80;99.90;;;;;;5034968;28;20042;-78
2022/07/17 09:34:50;;;;;;;3.90;1.15;;;19.90;99.90;;;;;;5018303;28;20037;-79
2022/07/17 09:37:16;;;;;;;6.88;1.50;;;20.10;99.90;;;;;;5034037;28;20120;-78
2022/07/17 09:39:42;;;;;;;3.85;1.05;;;19.90;99.90;;;;;;5047572;28;20043;-78
2022/07/17 09:42:08;;;;;;;2.95;1.08;;;19.90;99.90;;;;;;5044037;28;20056;-78
2022/07/17 09:44:34;;;;;;;4.10;1.00;;;19.80;99.90;;;;;;5031209;28;20038;-77
2022/07/17 09:47:01;;;;;;;7.13;1.20;;;20.00;99.90;;;;;;5032903;28;20103;-78
2022/07/17 09:49:28;;;;;;;4.65;1.38;;;20.00;99.90;;;;;;5032227;28;20038;-77
2022/07/17 09:51:54;;;;;;;4.80;1.15;;;20.10;99.90;;;;;;5033090;28;20407;-77
2022/07/17 09:54:23;;;;;;;4.00;1.30;;;20.30;99.90;;;;;;5032286;28;20608;-78
2022/07/17 09:56:57;;;;;;;4.68;1.10;;;20.30;99.90;;;;;;5032090;28;20399;-78
2022/07/17 09:59:26;;;;;;;5.22;1.05;;;20.40;99.90;;;;;;5032544;28;20034;-77
2022/07/17 10:01:51;;;;;;;4.88;1.27;;;20.70;99.90;;;;;;5031982;28;20380;-77
2022/07/17 10:04:17;;;;;;;3.35;1.13;;;20.70;99.90;;;;;;5031836;28;20049;-78
2022/07/17 10:06:43;;;;;;;7.38;1.20;;;20.90;99.90;;;;;;5034495;28;20044;-78
2022/07/17 10:09:08;;;;;;;4.00;1.15;;;21.00;99.90;;;;;;5031559;28;20064;-77
2022/07/17 10:11:39;;;;;;;3.97;1.15;;;21.00;99.90;;;;;;5030930;28;20048;-77
2022/07/17 10:14:08;;;;;;;3.85;1.13;;;21.10;99.90;;;;;;5030540;28;20045;-77
2022/07/17 10:16:36;;;;;;;4.63;1.05;;;21.10;99.90;;;;;;5030769;28;20077;-77
2022/07/17 10:19:02;;;;;;;3.95;1.42;;;21.10;99.90;;;;;;5031061;28;20041;-77
2022/07/17 10:21:30;;;;;;;2.80;0.90;;;21.20;99.90;;;;;;5031129;28;20490;-77
2022/07/17 10:23:56;;;;;;;5.03;1.33;;;21.40;99.90;;;;;;5031083;28;20052;-78
2022/07/17 10:26:43;;;;;;;3.30;1.30;;;21.40;99.70;;;;;;5037295;28;20119;-77
2022/07/17 10:29:26;;;;;;;6.65;1.13;;;21.40;99.50;;;;;;5050892;28;20110;-77
2022/07/17 10:31:52;;;;;;;3.55;1.17;;;21.50;99.80;;;;;;5039031;28;20041;-77
2022/07/17 10:34:21;;;;;;;2.53;1.15;;;21.50;99.40;;;;;;5030367;28;20052;-77
2022/07/17 10:36:47;;;;;;;4.60;1.10;;;21.60;99.10;;;;;;5031082;28;20037;-77
2022/07/17 10:39:20;;;;;;;1.95;0.90;;;21.60;98.90;;;;;;5035044;28;20487;-77
2022/07/17 10:42:01;;;;;;;4.07;1.30;;;21.80;99.30;;;;;;5031190;28;20129;-78
2022/07/17 10:44:29;;;;;;;3.95;1.27;;;22.00;98.50;;;;;;5030001;28;20037;-77
2022/07/17 10:46:56;;;;;;;2.92;1.20;;;22.00;99.00;;;;;;5030374;28;20041;-77
2022/07/17 10:49:22;;;;;;;4.00;1.17;;;22.10;99.10;;;;;;5030281;28;20052;-77
2022/07/17 10:51:50;;;;;;;3.92;1.48;;;22.20;98.70;;;;;;5031168;28;20041;-78
2022/07/17 10:54:16;;;;;;;2.92;1.10;;;22.40;98.50;;;;;;5029563;28;20492;-77
2022/07/17 10:56:41;;;;;;;4.40;1.20;;;22.20;98.00;;;;;;5029796;28;20087;-77
2022/07/17 10:59:07;;;;;;;5.35;1.17;;;22.40;98.20;;;;;;5030450;28;20431;-78
2022/07/17 11:01:32;;;;;;;3.35;1.20;;;22.70;98.40;;;;;;5031567;28;20080;-77
2022/07/17 11:04:01;;;;;;;3.97;1.20;;;22.70;97.80;;;;;;5030061;28;20484;-77
2022/07/17 11:06:37;;;;;;;2.75;1.15;;;22.60;97.40;;;;;;5030342;28;20042;-77
2022/07/17 11:09:04;;;;;;;6.65;1.30;;;22.70;97.40;;;;;;5031124;28;20049;-77
2022/07/17 11:11:45;;;;;;;3.53;1.33;;;22.70;97.50;;;;;;5030343;28;20502;-77
2022/07/17 11:14:10;;;;;;;3.15;1.13;;;22.70;97.50;;;;;;5013568;28;20172;-78
2022/07/17 11:16:37;;;;;;;3.47;1.17;;;23.00;97.60;;;;;;5039101;28;20127;-77
2022/07/17 11:19:03;;;;;;;3.53;1.30;;;23.10;97.20;;;;;;5044201;28;20078;-78
2022/07/17 11:21:29;;;;;;;3.45;1.13;;;23.10;97.20;;;;;;5024809;28;20399;-77
2022/07/17 11:23:56;;;;;;;3.75;1.30;;;23.30;97.20;;;;;;5045002;28;20044;-77
2022/07/17 11:26:22;;;;;;;6.38;1.17;;;23.20;96.70;;;;;;5041633;28;20395;-78
2022/07/17 11:28:49;;;;;;;3.28;1.20;;;23.60;96.90;;;;;;5042738;28;20035;-77
2022/07/17 11:31:18;;;;;;;4.22;1.25;;;23.70;97.10;;;;;;5047793;28;20244;-77
2022/07/17 11:33:55;;;;;;;4.00;1.23;;;23.90;97.10;;;;;;5037981;28;20060;-77
2022/07/17 11:36:26;;;;;;;2.05;1.10;;;24.10;96.80;;;;;;5043130;28;20119;-78
2022/07/17 11:38:53;;;;;;;6.40;1.60;;;24.10;96.20;;;;;;5048345;28;20037;-78
2022/07/17 11:41:19;;;;;;;3.20;1.17;;;24.20;96.00;;;;;;5037386;28;20577;-77
2022/07/17 11:43:46;;;;;;;7.32;1.75;;;24.40;95.70;;;;;;5043108;28;20068;-77
2022/07/17 11:46:12;;;;;;;3.30;1.23;;;24.60;95.50;;;;;;5043187;28;20042;-78
2022/07/17 11:48:42;;;;;;;2.45;1.10;;;24.70;95.40;;;;;;5045208;28;20565;-78
2022/07/17 11:51:07;;;;;;;3.53;1.38;;;24.70;95.00;;;;;;5059536;28;20033;-78
2022/07/17 11:53:35;;;;;;;3.67;1.23;;;25.00;94.90;;;;;;5040243;28;20144;-77
2022/07/17 11:56:01;;;;;;;2.65;1.20;;;25.20;94.60;;;;;;5044433;28;20441;-78
2022/07/17 11:58:28;;;;;;;4.68;1.25;;;25.10;94.50;;;;;;5041085;28;20041;-78
2022/07/17 12:01:04;;;;;;;3.75;1.42;;;24.90;94.30;;;;;;5039817;28;20059;-78
2022/07/17 12:03:31;;;;;;;2.28;1.35;;;24.90;94.20;;;;;;5040144;28;20103;-78
2022/07/17 12:05:56;;;;;;;5.50;1.50;;;25.00;94.40;;;;;;5044475;28;20069;-78
2022/07/17 12:08:22;;;;;;;2.55;1.33;;;25.10;94.10;;;;;;5042192;28;20068;-79
2022/07/17 12:10:58;;;;;;;2.58;1.38;;;24.90;94.00;;;;;;5050308;28;20485;-78
2022/07/17 12:13:36;;;;;;;2.88;1.30;;;24.70;93.70;;;;;;5039203;28;20033;-78
2022/07/17 12:16:02;;;;;;;4.25;1.20;;;24.90;94.00;;;;;;5043132;28;20029;-77
2022/07/17 12:18:29;;;;;;;3.90;1.60;;;25.40;94.30;;;;;;5038623;28;20080;-77
2022/07/17 12:21:05;;;;;;;3.10;1.33;;;25.90;94.50;;;;;;5037736;28;20069;-77
2022/07/17 12:23:32;;;;;;;4.72;1.40;;;26.20;94.60;;;;;;5039243;28;20079;-77
2022/07/17 12:26:05;;;;;;;2.88;1.45;;;26.50;93.60;;;;;;5044414;28;20041;-77
2022/07/17 12:28:30;;;;;;;3.22;1.30;;;26.60;93.50;;;;;;5035141;28;20052;-77
2022/07/17 12:30:56;;;;;;;4.60;1.45;;;27.00;93.70;;;;;;5040657;28;20074;-77
2022/07/17 12:33:21;;;;;;;4.85;1.70;;;27.10;93.40;;;;;;5049519;28;20049;-77
2022/07/17 12:35:47;;;;;;;4.47;1.60;;;27.20;93.20;;;;;;5042886;28;20037;-78
2022/07/17 12:38:13;;;;;;;3.45;1.42;;;27.30;92.70;;;;;;5043235;28;20045;-77
2022/07/17 12:40:38;;;;;;;4.25;1.63;;;27.10;92.80;;;;;;5036731;28;20120;-77
2022/07/17 12:43:04;;;;;;;2.40;1.35;;;27.30;92.70;;;;;;5047553;28;20070;-78
2022/07/17 12:45:29;;;;;;;4.88;1.50;;;27.40;92.20;;;;;;5043708;28;20040;-78
2022/07/17 12:47:55;;;;;;;2.85;1.50;;;27.30;91.70;;;;;;5050620;28;20059;-77
2022/07/17 12:50:20;;;;;;;5.22;1.65;;;27.00;91.50;;;;;;5041230;28;20032;-77
2022/07/17 12:52:46;;;;;;;2.72;1.50;;;26.90;91.60;;;;;;5047467;28;20116;-78
2022/07/17 12:55:12;;;;;;;4.28;1.42;;;26.70;91.70;;;;;;5056428;28;20042;-78
2022/07/17 12:57:37;;;;;;;4.63;1.77;;;26.70;91.60;;;;;;5042775;28;20499;-78
2022/07/17 13:00:04;;;;;;;3.42;1.90;;;26.70;91.60;;;;;;5043522;28;20038;-78
2022/07/17 13:02:29;;;;;;;4.13;1.70;;;26.70;91.30;;;;;;5052725;28;20045;-78
2022/07/17 13:04:55;;;;;;;3.08;1.63;;;26.80;91.30;;;;;;5034686;28;20037;-77
2022/07/17 13:07:20;;;;;;;3.85;1.80;;;26.80;91.40;;;;;;5055321;28;20085;-78
2022/07/17 13:09:46;;;;;;;5.00;1.65;;;27.00;91.70;;;;;;5043572;28;20076;-78
2022/07/17 13:12:11;;;;;;;4.28;1.80;;;27.20;91.90;;;;;;5043224;28;20041;-78
2022/07/17 13:14:37;;;;;;;4.28;1.83;;;27.70;91.80;;;;;;5043938;28;20387;-79
2022/07/17 13:17:03;;;;;;;4.22;2.03;;;28.00;91.80;;;;;;5049227;28;20030;-78
2022/07/17 13:19:28;;;;;;;3.28;2.05;;;28.00;91.30;;;;;;5046781;28;20464;-78
2022/07/17 13:21:54;;;;;;;3.55;1.80;;;28.00;90.80;;;;;;5054557;28;20041;-78